sensor_id;sensor_type;location;lat;lon;timestamp;P1;durP1;ratioP1;P2;durP2;ratioP2
72573;SDS011;60603;52.548;13.420;2022-09-01T00:01:50;3.70;;;1.10;;
72573;SDS011;60603;52.548;13.420;2022-09-01T00:04:21;3.53;;;1.10;;
72573;SDS011;60603;52.548;13.420;2022-09-01T00:06:51;1.92;;;1.00;;
72573;SDS011;60603;52.548;13.420;2022-09-01T00:09:19;1.95;;;0.80;;
72573;SDS011;60603;52.548;13.420;2022-09-01T00:11:48;1.95;;;0.90;;
72573;SDS011;60603;52.548;13.420;2022-09-01T00:16:42;2.92;;;0.95;;
72573;SDS011;60603;52.548;13.420;2022-09-01T00:19:08;3.33;;;1.30;;
72573;SDS011;60603;52.548;13.420;2022-09-01T00:21:36;2.20;;;1.00;;
72573;SDS011;60603;52.548;13.420;2022-09-01T00:24:03;1.55;;;0.80;;
72573;SDS011;60603;52.548;13.420;2022-09-01T00:26:30;2.92;;;1.00;;
72573;SDS011;60603;52.548;13.420;2022-09-01T00:28:56;1.65;;;0.85;;
72573;SDS011;60603;52.548;13.420;2022-09-01T00:31:21;1.80;;;0.90;;
72573;SDS011;60603;52.548;13.420;2022-09-01T00:33:47;3.10;;;0.88;;
72573;SDS011;60603;52.548;13.420;2022-09-01T00:36:14;2.55;;;0.82;;
72573;SDS011;60603;52.548;13.420;2022-09-01T00:38:40;3.45;;;0.90;;
72573;SDS011;60603;52.548;13.420;2022-09-01T00:41:06;2.30;;;0.90;;
72573;SDS011;60603;52.548;13.420;2022-09-01T00:43:40;3.47;;;1.00;;
72573;SDS011;60603;52.548;13.420;2022-09-01T00:46:08;1.92;;;0.85;;
72573;SDS011;60603;52.548;13.420;2022-09-01T00:48:37;3.15;;;0.98;;
72573;SDS011;60603;52.548;13.420;2022-09-01T00:51:03;1.77;;;0.90;;
72573;SDS011;60603;52.548;13.420;2022-09-01T00:53:30;2.60;;;0.98;;
72573;SDS011;60603;52.548;13.420;2022-09-01T00:55:57;3.53;;;0.90;;
72573;SDS011;60603;52.548;13.420;2022-09-01T00:58:23;2.10;;;0.90;;
72573;SDS011;60603;52.548;13.420;2022-09-01T01:00:48;3.55;;;1.10;;
72573;SDS011;60603;52.548;13.420;2022-09-01T01:03:16;2.22;;;0.95;;
72573;SDS011;60603;52.548;13.420;2022-09-01T01:05:43;2.13;;;0.90;;
72573;SDS011;60603;52.548;13.420;2022-09-01T01:10:45;6.18;;;1.25;;
72573;SDS011;60603;52.548;13.420;2022-09-01T01:13:13;2.58;;;0.88;;
72573;SDS011;60603;52.548;13.420;2022-09-01T01:15:42;3.25;;;1.10;;
72573;SDS011;60603;52.548;13.420;2022-09-01T01:18:17;2.80;;;1.00;;
72573;SDS011;60603;52.548;13.420;2022-09-01T01:20:43;4.13;;;1.02;;
72573;SDS011;60603;52.548;13.420;2022-09-01T01:23:38;3.05;;;1.30;;
72573;SDS011;60603;52.548;13.420;2022-09-01T01:26:07;1.83;;;1.20;;
72573;SDS011;60603;52.548;13.420;2022-09-01T01:28:36;3.45;;;1.27;;
72573;SDS011;60603;52.548;13.420;2022-09-01T01:31:06;2.70;;;1.10;;
72573;SDS011;60603;52.548;13.420;2022-09-01T01:33:41;3.17;;;1.20;;
72573;SDS011;60603;52.548;13.420;2022-09-01T01:36:14;2.85;;;0.95;;
72573;SDS011;60603;52.548;13.420;2022-09-01T01:38:41;2.08;;;1.08;;
72573;SDS011;60603;52.548;13.420;2022-09-01T01:41:09;2.80;;;1.08;;
72573;SDS011;60603;52.548;13.420;2022-09-01T01:43:35;3.15;;;1.20;;
72573;SDS011;60603;52.548;13.420;2022-09-01T01:46:02;2.80;;;1.10;;
72573;SDS011;60603;52.548;13.420;2022-09-01T01:48:30;4.57;;;1.00;;
72573;SDS011;60603;52.548;13.420;2022-09-01T01:50:59;2.85;;;1.27;;
72573;SDS011;60603;52.548;13.420;2022-09-01T01:53:26;4.38;;;1.50;;
72573;SDS011;60603;52.548;13.420;2022-09-01T01:55:52;1.80;;;1.08;;
72573;SDS011;60603;52.548;13.420;2022-09-01T01:58:20;2.55;;;1.10;;
72573;SDS011;60603;52.548;13.420;2022-09-01T02:00:47;2.33;;;1.10;;
72573;SDS011;60603;52.548;13.420;2022-09-01T02:03:14;1.88;;;1.10;;
72573;SDS011;60603;52.548;13.420;2022-09-01T02:05:44;2.22;;;1.30;;
72573;SDS011;60603;52.548;13.420;2022-09-01T02:08:13;1.98;;;0.93;;
72573;SDS011;60603;52.548;13.420;2022-09-01T02:10:41;5.10;;;1.23;;
72573;SDS011;60603;52.548;13.420;2022-09-01T02:13:08;2.42;;;0.90;;
72573;SDS011;60603;52.548;13.420;2022-09-01T02:15:48;3.67;;;1.38;;
72573;SDS011;60603;52.548;13.420;2022-09-01T02:18:19;2.97;;;1.30;;
72573;SDS011;60603;52.548;13.420;2022-09-01T02:20:48;2.50;;;0.95;;
72573;SDS011;60603;52.548;13.420;2022-09-01T02:23:15;2.65;;;1.13;;
72573;SDS011;60603;52.548;13.420;2022-09-01T02:25:48;3.25;;;1.15;;
72573;SDS011;60603;52.548;13.420;2022-09-01T02:28:16;2.75;;;1.10;;
72573;SDS011;60603;52.548;13.420;2022-09-01T02:30:43;4.43;;;1.40;;
72573;SDS011;60603;52.548;13.420;2022-09-01T02:33:10;4.38;;;1.40;;
72573;SDS011;60603;52.548;13.420;2022-09-01T02:35:43;4.10;;;1.25;;
72573;SDS011;60603;52.548;13.420;2022-09-01T02:38:09;3.58;;;1.20;;
72573;SDS011;60603;52.548;13.420;2022-09-01T02:40:39;4.00;;;1.33;;
72573;SDS011;60603;52.548;13.420;2022-09-01T02:43:10;2.60;;;1.20;;
72573;SDS011;60603;52.548;13.420;2022-09-01T02:45:36;3.28;;;1.40;;
72573;SDS011;60603;52.548;13.420;2022-09-01T02:48:03;2.95;;;1.45;;
72573;SDS011;60603;52.548;13.420;2022-09-01T02:50:35;2.80;;;1.20;;
72573;SDS011;60603;52.548;13.420;2022-09-01T02:53:01;2.78;;;1.23;;
72573;SDS011;60603;52.548;13.420;2022-09-01T02:55:30;2.42;;;1.30;;
72573;SDS011;60603;52.548;13.420;2022-09-01T02:57:56;3.70;;;1.30;;
72573;SDS011;60603;52.548;13.420;2022-09-01T03:00:22;5.82;;;1.20;;
72573;SDS011;60603;52.548;13.420;2022-09-01T03:02:59;2.92;;;1.30;;
72573;SDS011;60603;52.548;13.420;2022-09-01T03:05:41;2.67;;;1.25;;
72573;SDS011;60603;52.548;13.420;2022-09-01T03:08:08;3.78;;;1.48;;
72573;SDS011;60603;52.548;13.420;2022-09-01T03:10:38;3.65;;;1.40;;
72573;SDS011;60603;52.548;13.420;2022-09-01T03:13:07;3.13;;;1.33;;
72573;SDS011;60603;52.548;13.420;2022-09-01T03:15:38;3.85;;;1.35;;
72573;SDS011;60603;52.548;13.420;2022-09-01T03:18:06;2.60;;;1.42;;
72573;SDS011;60603;52.548;13.420;2022-09-01T03:20:33;2.63;;;1.33;;
72573;SDS011;60603;52.548;13.420;2022-09-01T03:23:00;3.60;;;1.60;;
72573;SDS011;60603;52.548;13.420;2022-09-01T03:25:45;3.47;;;1.55;;
72573;SDS011;60603;52.548;13.420;2022-09-01T03:28:12;6.15;;;1.60;;
72573;SDS011;60603;52.548;13.420;2022-09-01T03:30:42;4.95;;;1.77;;
72573;SDS011;60603;52.548;13.420;2022-09-01T03:33:09;3.75;;;1.50;;
72573;SDS011;60603;52.548;13.420;2022-09-01T03:35:35;3.47;;;1.83;;
72573;SDS011;60603;52.548;13.420;2022-09-01T03:38:01;2.80;;;1.42;;
72573;SDS011;60603;52.548;13.420;2022-09-01T03:40:29;6.25;;;1.85;;
72573;SDS011;60603;52.548;13.420;2022-09-01T03:43:00;4.25;;;1.50;;
72573;SDS011;60603;52.548;13.420;2022-09-01T03:45:28;4.05;;;1.40;;
72573;SDS011;60603;52.548;13.420;2022-09-01T03:47:54;3.60;;;1.83;;
72573;SDS011;60603;52.548;13.420;2022-09-01T03:50:21;3.55;;;1.70;;
72573;SDS011;60603;52.548;13.420;2022-09-01T03:52:53;4.05;;;1.63;;
72573;SDS011;60603;52.548;13.420;2022-09-01T03:55:24;5.38;;;1.52;;
72573;SDS011;60603;52.548;13.420;2022-09-01T03:57:57;4.03;;;1.75;;
72573;SDS011;60603;52.548;13.420;2022-09-01T04:00:26;3.63;;;1.80;;
72573;SDS011;60603;52.548;13.420;2022-09-01T04:02:55;4.32;;;1.70;;
72573;SDS011;60603;52.548;13.420;2022-09-01T04:05:26;4.63;;;2.00;;
72573;SDS011;60603;52.548;13.420;2022-09-01T04:07:55;2.85;;;1.63;;
72573;SDS011;60603;52.548;13.420;2022-09-01T04:10:22;9.73;;;2.22;;
72573;SDS011;60603;52.548;13.420;2022-09-01T04:12:48;4.32;;;1.92;;
72573;SDS011;60603;52.548;13.420;2022-09-01T04:15:14;4.57;;;1.80;;
72573;SDS011;60603;52.548;13.420;2022-09-01T04:17:44;3.80;;;2.28;;
72573;SDS011;60603;52.548;13.420;2022-09-01T04:20:28;6.35;;;2.47;;
72573;SDS011;60603;52.548;13.420;2022-09-01T04:23:04;6.97;;;2.22;;
72573;SDS011;60603;52.548;13.420;2022-09-01T04:25:38;7.00;;;2.20;;
72573;SDS011;60603;52.548;13.420;2022-09-01T04:28:05;4.32;;;2.10;;
72573;SDS011;60603;52.548;13.420;2022-09-01T04:30:38;4.90;;;1.95;;
72573;SDS011;60603;52.548;13.420;2022-09-01T04:33:07;3.58;;;2.15;;
72573;SDS011;60603;52.548;13.420;2022-09-01T04:35:37;4.35;;;2.38;;
72573;SDS011;60603;52.548;13.420;2022-09-01T04:38:04;4.95;;;2.83;;
72573;SDS011;60603;52.548;13.420;2022-09-01T04:40:36;6.28;;;2.28;;
72573;SDS011;60603;52.548;13.420;2022-09-01T04:43:03;3.83;;;2.25;;
72573;SDS011;60603;52.548;13.420;2022-09-01T04:45:30;4.63;;;2.22;;
72573;SDS011;60603;52.548;13.420;2022-09-01T04:47:56;6.93;;;2.50;;
72573;SDS011;60603;52.548;13.420;2022-09-01T04:50:24;5.50;;;2.75;;
72573;SDS011;60603;52.548;13.420;2022-09-01T04:52:51;6.35;;;3.25;;
72573;SDS011;60603;52.548;13.420;2022-09-01T04:55:20;6.03;;;2.05;;
72573;SDS011;60603;52.548;13.420;2022-09-01T04:57:46;4.85;;;2.35;;
72573;SDS011;60603;52.548;13.420;2022-09-01T05:00:14;4.93;;;2.05;;
72573;SDS011;60603;52.548;13.420;2022-09-01T05:03:08;4.35;;;2.13;;
72573;SDS011;60603;52.548;13.420;2022-09-01T05:05:38;7.00;;;2.40;;
72573;SDS011;60603;52.548;13.420;2022-09-01T05:08:11;4.97;;;2.28;;
72573;SDS011;60603;52.548;13.420;2022-09-01T05:10:40;5.35;;;1.80;;
72573;SDS011;60603;52.548;13.420;2022-09-01T05:13:09;5.97;;;2.38;;
72573;SDS011;60603;52.548;13.420;2022-09-01T05:15:40;6.70;;;2.95;;
72573;SDS011;60603;52.548;13.420;2022-09-01T05:18:14;4.63;;;2.28;;
72573;SDS011;60603;52.548;13.420;2022-09-01T05:23:08;5.32;;;2.10;;
72573;SDS011;60603;52.548;13.420;2022-09-01T05:28:03;5.25;;;2.33;;
72573;SDS011;60603;52.548;13.420;2022-09-01T05:30:29;7.45;;;2.80;;
72573;SDS011;60603;52.548;13.420;2022-09-01T05:32:55;5.55;;;1.80;;
72573;SDS011;60603;52.548;13.420;2022-09-01T05:35:21;4.63;;;2.13;;
72573;SDS011;60603;52.548;13.420;2022-09-01T05:37:48;5.05;;;1.75;;
72573;SDS011;60603;52.548;13.420;2022-09-01T05:40:16;4.55;;;2.25;;
72573;SDS011;60603;52.548;13.420;2022-09-01T05:42:44;3.80;;;1.70;;
72573;SDS011;60603;52.548;13.420;2022-09-01T05:45:10;4.35;;;1.52;;
72573;SDS011;60603;52.548;13.420;2022-09-01T05:47:39;3.63;;;1.52;;
72573;SDS011;60603;52.548;13.420;2022-09-01T05:52:36;3.85;;;1.58;;
72573;SDS011;60603;52.548;13.420;2022-09-01T05:55:03;6.10;;;1.50;;
72573;SDS011;60603;52.548;13.420;2022-09-01T05:57:31;3.65;;;1.20;;
72573;SDS011;60603;52.548;13.420;2022-09-01T05:59:59;4.18;;;1.30;;
72573;SDS011;60603;52.548;13.420;2022-09-01T06:02:26;4.30;;;1.55;;
72573;SDS011;60603;52.548;13.420;2022-09-01T06:04:52;4.13;;;1.50;;
72573;SDS011;60603;52.548;13.420;2022-09-01T06:07:21;3.40;;;1.63;;
72573;SDS011;60603;52.548;13.420;2022-09-01T06:09:48;5.40;;;1.60;;
72573;SDS011;60603;52.548;13.420;2022-09-01T06:12:15;3.97;;;1.30;;
72573;SDS011;60603;52.548;13.420;2022-09-01T06:14:48;4.80;;;1.35;;
72573;SDS011;60603;52.548;13.420;2022-09-01T06:17:18;4.45;;;1.38;;
72573;SDS011;60603;52.548;13.420;2022-09-01T06:19:48;4.07;;;1.38;;
72573;SDS011;60603;52.548;13.420;2022-09-01T06:22:16;3.40;;;1.27;;
72573;SDS011;60603;52.548;13.420;2022-09-01T06:24:42;2.45;;;1.20;;
72573;SDS011;60603;52.548;13.420;2022-09-01T06:27:08;3.08;;;1.30;;
72573;SDS011;60603;52.548;13.420;2022-09-01T06:29:36;2.70;;;1.23;;
72573;SDS011;60603;52.548;13.420;2022-09-01T06:32:06;2.95;;;1.10;;
72573;SDS011;60603;52.548;13.420;2022-09-01T06:34:40;2.47;;;1.25;;
72573;SDS011;60603;52.548;13.420;2022-09-01T06:37:08;3.08;;;1.20;;
72573;SDS011;60603;52.548;13.420;2022-09-01T06:39:35;3.33;;;1.50;;
72573;SDS011;60603;52.548;13.420;2022-09-01T06:42:01;2.97;;;1.40;;
72573;SDS011;60603;52.548;13.420;2022-09-01T06:44:27;2.55;;;1.30;;
72573;SDS011;60603;52.548;13.420;2022-09-01T06:46:56;5.18;;;1.58;;
72573;SDS011;60603;52.548;13.420;2022-09-01T06:49:22;3.63;;;1.10;;
72573;SDS011;60603;52.548;13.420;2022-09-01T06:51:57;3.75;;;1.27;;
72573;SDS011;60603;52.548;13.420;2022-09-01T06:54:24;3.83;;;1.60;;
72573;SDS011;60603;52.548;13.420;2022-09-01T06:56:54;3.38;;;1.30;;
72573;SDS011;60603;52.548;13.420;2022-09-01T06:59:20;8.43;;;1.60;;
72573;SDS011;60603;52.548;13.420;2022-09-01T07:01:45;4.97;;;1.50;;
72573;SDS011;60603;52.548;13.420;2022-09-01T07:04:13;4.03;;;1.38;;
72573;SDS011;60603;52.548;13.420;2022-09-01T07:06:41;3.40;;;1.10;;
72573;SDS011;60603;52.548;13.420;2022-09-01T07:09:07;3.17;;;1.17;;
72573;SDS011;60603;52.548;13.420;2022-09-01T07:11:33;5.47;;;1.08;;
72573;SDS011;60603;52.548;13.420;2022-09-01T07:14:03;2.40;;;0.98;;
72573;SDS011;60603;52.548;13.420;2022-09-01T07:16:31;3.40;;;1.20;;
72573;SDS011;60603;52.548;13.420;2022-09-01T07:18:59;2.55;;;0.80;;
72573;SDS011;60603;52.548;13.420;2022-09-01T07:21:27;3.55;;;0.93;;
72573;SDS011;60603;52.548;13.420;2022-09-01T07:26:23;2.70;;;1.00;;
72573;SDS011;60603;52.548;13.420;2022-09-01T07:28:50;2.50;;;0.80;;
72573;SDS011;60603;52.548;13.420;2022-09-01T07:31:21;1.65;;;0.90;;
72573;SDS011;60603;52.548;13.420;2022-09-01T07:33:49;1.65;;;0.93;;
72573;SDS011;60603;52.548;13.420;2022-09-01T07:36:17;5.53;;;0.80;;
72573;SDS011;60603;52.548;13.420;2022-09-01T07:38:43;1.60;;;0.82;;
72573;SDS011;60603;52.548;13.420;2022-09-01T07:41:10;5.75;;;1.25;;
72573;SDS011;60603;52.548;13.420;2022-09-01T07:43:39;3.13;;;0.90;;
72573;SDS011;60603;52.548;13.420;2022-09-01T07:46:09;3.42;;;1.10;;
72573;SDS011;60603;52.548;13.420;2022-09-01T07:48:35;2.40;;;0.82;;
72573;SDS011;60603;52.548;13.420;2022-09-01T07:51:02;3.28;;;0.88;;
72573;SDS011;60603;52.548;13.420;2022-09-01T07:53:31;4.43;;;1.08;;
72573;SDS011;60603;52.548;13.420;2022-09-01T07:55:59;2.78;;;0.93;;
72573;SDS011;60603;52.548;13.420;2022-09-01T07:58:31;2.17;;;0.80;;
72573;SDS011;60603;52.548;13.420;2022-09-01T08:00:58;3.90;;;1.20;;
72573;SDS011;60603;52.548;13.420;2022-09-01T08:03:27;3.80;;;1.10;;
72573;SDS011;60603;52.548;13.420;2022-09-01T08:05:54;2.60;;;0.80;;
72573;SDS011;60603;52.548;13.420;2022-09-01T08:08:25;3.55;;;1.10;;
72573;SDS011;60603;52.548;13.420;2022-09-01T08:10:51;3.08;;;1.20;;
72573;SDS011;60603;52.548;13.420;2022-09-01T08:13:20;2.10;;;0.90;;
72573;SDS011;60603;52.548;13.420;2022-09-01T08:15:46;6.05;;;1.20;;
72573;SDS011;60603;52.548;13.420;2022-09-01T08:18:12;3.17;;;0.95;;
72573;SDS011;60603;52.548;13.420;2022-09-01T08:20:38;2.28;;;0.88;;
72573;SDS011;60603;52.548;13.420;2022-09-01T08:23:10;2.65;;;1.08;;
72573;SDS011;60603;52.548;13.420;2022-09-01T08:25:38;2.50;;;0.95;;
72573;SDS011;60603;52.548;13.420;2022-09-01T08:28:04;2.17;;;0.93;;
72573;SDS011;60603;52.548;13.420;2022-09-01T08:30:30;3.60;;;1.20;;
72573;SDS011;60603;52.548;13.420;2022-09-01T08:32:57;3.22;;;0.90;;
72573;SDS011;60603;52.548;13.420;2022-09-01T08:35:23;1.77;;;0.80;;
72573;SDS011;60603;52.548;13.420;2022-09-01T08:37:49;2.47;;;0.90;;
72573;SDS011;60603;52.548;13.420;2022-09-01T08:40:24;1.95;;;0.90;;
72573;SDS011;60603;52.548;13.420;2022-09-01T08:43:04;4.15;;;1.05;;
72573;SDS011;60603;52.548;13.420;2022-09-01T08:48:01;3.03;;;1.30;;
72573;SDS011;60603;52.548;13.420;2022-09-01T08:50:38;3.13;;;1.00;;
72573;SDS011;60603;52.548;13.420;2022-09-01T08:53:07;2.15;;;0.93;;
72573;SDS011;60603;52.548;13.420;2022-09-01T08:55:40;2.35;;;1.00;;
72573;SDS011;60603;52.548;13.420;2022-09-01T08:58:09;3.00;;;0.80;;
72573;SDS011;60603;52.548;13.420;2022-09-01T09:00:38;2.20;;;0.75;;
72573;SDS011;60603;52.548;13.420;2022-09-01T09:03:13;3.47;;;0.98;;
72573;SDS011;60603;52.548;13.420;2022-09-01T09:11:06;3.67;;;1.10;;
72573;SDS011;60603;52.548;13.420;2022-09-01T09:16:40;2.08;;;0.68;;
72573;SDS011;60603;52.548;13.420;2022-09-01T09:21:43;2.25;;;0.85;;
72573;SDS011;60603;52.548;13.420;2022-09-01T09:26:46;2.55;;;0.82;;
72573;SDS011;60603;52.548;13.420;2022-09-01T09:29:13;2.22;;;1.00;;
72573;SDS011;60603;52.548;13.420;2022-09-01T09:31:39;3.25;;;0.75;;
72573;SDS011;60603;52.548;13.420;2022-09-01T09:42:32;1.55;;;0.75;;
72573;SDS011;60603;52.548;13.420;2022-09-01T09:44:58;1.67;;;0.80;;
72573;SDS011;60603;52.548;13.420;2022-09-01T09:47:37;3.20;;;0.90;;
72573;SDS011;60603;52.548;13.420;2022-09-01T09:52:47;2.53;;;0.70;;
72573;SDS011;60603;52.548;13.420;2022-09-01T09:55:26;1.20;;;0.50;;
72573;SDS011;60603;52.548;13.420;2022-09-01T09:57:58;2.28;;;0.77;;
72573;SDS011;60603;52.548;13.420;2022-09-01T10:00:29;3.10;;;0.73;;
72573;SDS011;60603;52.548;13.420;2022-09-01T10:08:24;2.90;;;0.70;;
72573;SDS011;60603;52.548;13.420;2022-09-01T10:10:59;2.33;;;0.70;;
72573;SDS011;60603;52.548;13.420;2022-09-01T10:13:26;1.55;;;0.70;;
72573;SDS011;60603;52.548;13.420;2022-09-01T10:15:56;0.68;;;0.55;;
72573;SDS011;60603;52.548;13.420;2022-09-01T10:18:26;2.78;;;0.90;;
72573;SDS011;60603;52.548;13.420;2022-09-01T10:21:17;3.13;;;0.75;;
72573;SDS011;60603;52.548;13.420;2022-09-01T10:23:42;1.45;;;0.70;;
72573;SDS011;60603;52.548;13.420;2022-09-01T10:26:10;1.08;;;0.55;;
72573;SDS011;60603;52.548;13.420;2022-09-01T10:28:45;1.15;;;0.70;;
72573;SDS011;60603;52.548;13.420;2022-09-01T10:31:23;1.95;;;0.60;;
72573;SDS011;60603;52.548;13.420;2022-09-01T10:33:49;2.03;;;0.60;;
72573;SDS011;60603;52.548;13.420;2022-09-01T10:36:15;1.70;;;0.60;;
72573;SDS011;60603;52.548;13.420;2022-09-01T10:38:42;1.35;;;0.50;;
72573;SDS011;60603;52.548;13.420;2022-09-01T10:44:20;2.22;;;0.60;;
72573;SDS011;60603;52.548;13.420;2022-09-01T10:47:02;1.02;;;0.65;;
72573;SDS011;60603;52.548;13.420;2022-09-01T10:52:02;1.48;;;0.47;;
72573;SDS011;60603;52.548;13.420;2022-09-01T10:57:10;1.58;;;0.70;;
72573;SDS011;60603;52.548;13.420;2022-09-01T10:59:36;2.45;;;0.70;;
72573;SDS011;60603;52.548;13.420;2022-09-01T11:07:13;1.13;;;0.60;;
72573;SDS011;60603;52.548;13.420;2022-09-01T11:15:45;1.20;;;0.60;;
72573;SDS011;60603;52.548;13.420;2022-09-01T11:18:14;1.17;;;0.45;;
72573;SDS011;60603;52.548;13.420;2022-09-01T11:20:41;2.05;;;0.73;;
72573;SDS011;60603;52.548;13.420;2022-09-01T11:23:11;2.15;;;0.70;;
72573;SDS011;60603;52.548;13.420;2022-09-01T11:35:59;1.73;;;0.70;;
72573;SDS011;60603;52.548;13.420;2022-09-01T11:38:41;2.03;;;0.68;;
72573;SDS011;60603;52.548;13.420;2022-09-01T11:41:19;2.33;;;0.68;;
72573;SDS011;60603;52.548;13.420;2022-09-01T11:43:58;2.97;;;0.75;;
72573;SDS011;60603;52.548;13.420;2022-09-01T11:46:35;7.63;;;0.70;;
72573;SDS011;60603;52.548;13.420;2022-09-01T11:49:04;2.05;;;0.60;;
72573;SDS011;60603;52.548;13.420;2022-09-01T11:51:40;1.80;;;0.60;;
72573;SDS011;60603;52.548;13.420;2022-09-01T11:54:10;1.65;;;0.57;;
72573;SDS011;60603;52.548;13.420;2022-09-01T11:56:36;2.15;;;0.77;;
72573;SDS011;60603;52.548;13.420;2022-09-01T11:59:01;2.90;;;0.70;;
72573;SDS011;60603;52.548;13.420;2022-09-01T12:01:35;2.53;;;0.63;;
72573;SDS011;60603;52.548;13.420;2022-09-01T12:04:19;1.60;;;0.60;;
72573;SDS011;60603;52.548;13.420;2022-09-01T12:06:58;1.52;;;0.70;;
72573;SDS011;60603;52.548;13.420;2022-09-01T12:09:33;1.90;;;0.73;;
72573;SDS011;60603;52.548;13.420;2022-09-01T12:12:02;1.52;;;0.60;;
72573;SDS011;60603;52.548;13.420;2022-09-01T12:14:29;1.17;;;0.68;;
72573;SDS011;60603;52.548;13.420;2022-09-01T12:17:01;1.92;;;0.88;;
72573;SDS011;60603;52.548;13.420;2022-09-01T12:19:32;2.65;;;1.02;;
72573;SDS011;60603;52.548;13.420;2022-09-01T12:22:04;2.55;;;0.60;;
72573;SDS011;60603;52.548;13.420;2022-09-01T12:24:42;2.25;;;0.73;;
72573;SDS011;60603;52.548;13.420;2022-09-01T12:27:10;1.75;;;0.70;;
72573;SDS011;60603;52.548;13.420;2022-09-01T12:29:37;1.67;;;0.60;;
72573;SDS011;60603;52.548;13.420;2022-09-01T12:32:02;2.05;;;0.73;;
72573;SDS011;60603;52.548;13.420;2022-09-01T12:37:39;2.33;;;0.70;;
72573;SDS011;60603;52.548;13.420;2022-09-01T12:39:48;2.45;;;0.90;;
72573;SDS011;60603;52.548;13.420;2022-09-01T12:48:47;3.10;;;1.08;;
72573;SDS011;60603;52.548;13.420;2022-09-01T12:51:22;0.65;;;0.50;;
72573;SDS011;60603;52.548;13.420;2022-09-01T12:53:53;1.08;;;0.52;;
72573;SDS011;60603;52.548;13.420;2022-09-01T12:56:32;2.95;;;0.98;;
72573;SDS011;60603;52.548;13.420;2022-09-01T12:59:04;3.00;;;0.68;;
72573;SDS011;60603;52.548;13.420;2022-09-01T13:01:38;1.95;;;0.57;;
72573;SDS011;60603;52.548;13.420;2022-09-01T13:04:12;2.30;;;0.80;;
72573;SDS011;60603;52.548;13.420;2022-09-01T13:06:53;0.95;;;0.70;;
72573;SDS011;60603;52.548;13.420;2022-09-01T13:09:20;1.25;;;0.60;;
72573;SDS011;60603;52.548;13.420;2022-09-01T13:11:46;1.58;;;0.70;;
72573;SDS011;60603;52.548;13.420;2022-09-01T13:14:13;1.90;;;0.70;;
72573;SDS011;60603;52.548;13.420;2022-09-01T13:16:40;1.38;;;0.65;;
72573;SDS011;60603;52.548;13.420;2022-09-01T13:19:06;2.25;;;0.80;;
72573;SDS011;60603;52.548;13.420;2022-09-01T13:21:33;1.08;;;0.60;;
72573;SDS011;60603;52.548;13.420;2022-09-01T13:24:00;3.13;;;0.77;;
72573;SDS011;60603;52.548;13.420;2022-09-01T13:26:28;2.33;;;1.05;;
72573;SDS011;60603;52.548;13.420;2022-09-01T13:28:56;1.20;;;0.63;;
72573;SDS011;60603;52.548;13.420;2022-09-01T13:31:22;2.65;;;1.05;;
72573;SDS011;60603;52.548;13.420;2022-09-01T13:33:48;2.75;;;0.80;;
72573;SDS011;60603;52.548;13.420;2022-09-01T13:36:14;2.45;;;0.80;;
72573;SDS011;60603;52.548;13.420;2022-09-01T13:38:39;1.92;;;0.75;;
72573;SDS011;60603;52.548;13.420;2022-09-01T13:41:05;2.00;;;0.77;;
72573;SDS011;60603;52.548;13.420;2022-09-01T13:43:33;2.35;;;0.80;;
72573;SDS011;60603;52.548;13.420;2022-09-01T13:45:59;2.97;;;1.10;;
72573;SDS011;60603;52.548;13.420;2022-09-01T13:48:24;2.53;;;0.73;;
72573;SDS011;60603;52.548;13.420;2022-09-01T13:50:52;1.92;;;0.80;;
72573;SDS011;60603;52.548;13.420;2022-09-01T13:53:18;1.83;;;0.70;;
72573;SDS011;60603;52.548;13.420;2022-09-01T13:55:44;1.38;;;0.60;;
72573;SDS011;60603;52.548;13.420;2022-09-01T13:58:10;1.60;;;0.60;;
72573;SDS011;60603;52.548;13.420;2022-09-01T14:00:37;1.95;;;0.68;;
72573;SDS011;60603;52.548;13.420;2022-09-01T14:03:06;2.92;;;0.73;;
72573;SDS011;60603;52.548;13.420;2022-09-01T14:05:36;2.15;;;0.80;;
72573;SDS011;60603;52.548;13.420;2022-09-01T14:08:03;1.83;;;0.80;;
72573;SDS011;60603;52.548;13.420;2022-09-01T14:10:30;2.35;;;0.75;;
72573;SDS011;60603;52.548;13.420;2022-09-01T14:12:57;2.22;;;0.70;;
72573;SDS011;60603;52.548;13.420;2022-09-01T14:15:23;3.58;;;0.70;;
72573;SDS011;60603;52.548;13.420;2022-09-01T14:17:50;2.85;;;0.82;;
72573;SDS011;60603;52.548;13.420;2022-09-01T14:20:19;1.75;;;0.95;;
72573;SDS011;60603;52.548;13.420;2022-09-01T14:22:47;1.65;;;0.52;;
72573;SDS011;60603;52.548;13.420;2022-09-01T14:25:13;2.70;;;0.98;;
72573;SDS011;60603;52.548;13.420;2022-09-01T14:27:39;1.55;;;0.50;;
72573;SDS011;60603;52.548;13.420;2022-09-01T14:30:07;3.13;;;0.70;;
72573;SDS011;60603;52.548;13.420;2022-09-01T14:32:34;3.22;;;1.00;;
72573;SDS011;60603;52.548;13.420;2022-09-01T14:35:00;3.92;;;1.10;;
72573;SDS011;60603;52.548;13.420;2022-09-01T14:37:26;3.67;;;0.60;;
72573;SDS011;60603;52.548;13.420;2022-09-01T14:39:54;1.55;;;0.55;;
72573;SDS011;60603;52.548;13.420;2022-09-01T14:42:21;0.70;;;0.50;;
72573;SDS011;60603;52.548;13.420;2022-09-01T14:44:50;1.00;;;0.60;;
72573;SDS011;60603;52.548;13.420;2022-09-01T14:47:16;2.85;;;0.95;;
72573;SDS011;60603;52.548;13.420;2022-09-01T14:49:43;2.72;;;0.75;;
72573;SDS011;60603;52.548;13.420;2022-09-01T14:52:09;1.63;;;0.70;;
72573;SDS011;60603;52.548;13.420;2022-09-01T14:54:35;2.80;;;0.82;;
72573;SDS011;60603;52.548;13.420;2022-09-01T14:57:03;3.35;;;0.90;;
72573;SDS011;60603;52.548;13.420;2022-09-01T14:59:29;1.25;;;0.75;;
72573;SDS011;60603;52.548;13.420;2022-09-01T15:01:55;3.50;;;1.10;;
72573;SDS011;60603;52.548;13.420;2022-09-01T15:04:21;1.52;;;0.63;;
72573;SDS011;60603;52.548;13.420;2022-09-01T15:06:47;0.82;;;0.50;;
72573;SDS011;60603;52.548;13.420;2022-09-01T15:09:12;1.58;;;0.77;;
72573;SDS011;60603;52.548;13.420;2022-09-01T15:11:39;1.58;;;0.70;;
72573;SDS011;60603;52.548;13.420;2022-09-01T15:14:06;1.83;;;0.57;;
72573;SDS011;60603;52.548;13.420;2022-09-01T15:16:34;2.40;;;0.57;;
72573;SDS011;60603;52.548;13.420;2022-09-01T15:19:04;4.95;;;0.90;;
72573;SDS011;60603;52.548;13.420;2022-09-01T15:21:31;1.58;;;0.70;;
72573;SDS011;60603;52.548;13.420;2022-09-01T15:23:58;2.20;;;0.93;;
72573;SDS011;60603;52.548;13.420;2022-09-01T15:26:25;3.17;;;0.80;;
72573;SDS011;60603;52.548;13.420;2022-09-01T15:28:51;1.33;;;0.70;;
72573;SDS011;60603;52.548;13.420;2022-09-01T15:31:18;1.88;;;0.77;;
72573;SDS011;60603;52.548;13.420;2022-09-01T15:33:45;4.32;;;1.00;;
72573;SDS011;60603;52.548;13.420;2022-09-01T15:36:21;3.40;;;0.80;;
72573;SDS011;60603;52.548;13.420;2022-09-01T15:38:48;2.30;;;0.80;;
72573;SDS011;60603;52.548;13.420;2022-09-01T15:41:18;1.83;;;0.70;;
72573;SDS011;60603;52.548;13.420;2022-09-01T15:43:45;2.45;;;0.70;;
72573;SDS011;60603;52.548;13.420;2022-09-01T15:46:11;2.33;;;0.80;;
72573;SDS011;60603;52.548;13.420;2022-09-01T15:48:38;1.48;;;0.85;;
72573;SDS011;60603;52.548;13.420;2022-09-01T15:53:59;1.95;;;0.80;;
72573;SDS011;60603;52.548;13.420;2022-09-01T15:56:29;2.17;;;0.70;;
72573;SDS011;60603;52.548;13.420;2022-09-01T15:58:55;1.92;;;0.88;;
72573;SDS011;60603;52.548;13.420;2022-09-01T16:01:23;1.77;;;0.70;;
72573;SDS011;60603;52.548;13.420;2022-09-01T16:03:49;2.88;;;0.82;;
72573;SDS011;60603;52.548;13.420;2022-09-01T16:06:15;2.15;;;0.93;;
72573;SDS011;60603;52.548;13.420;2022-09-01T16:08:41;1.75;;;0.80;;
72573;SDS011;60603;52.548;13.420;2022-09-01T16:11:09;2.58;;;0.68;;
72573;SDS011;60603;52.548;13.420;2022-09-01T16:13:40;2.15;;;0.77;;